sensor_id;sensor_type;location;lat;lon;timestamp;P1;durP1;ratioP1;P2;durP2;ratioP2
12852;SDS011;6495;51.808;7.478;2023-03-08T00:01:21;7.50;;;4.63;;
12852;SDS011;6495;51.808;7.478;2023-03-08T00:03:51;8.10;;;4.73;;
12852;SDS011;6495;51.808;7.478;2023-03-08T00:06:20;6.83;;;4.37;;
12852;SDS011;6495;51.808;7.478;2023-03-08T00:08:49;7.80;;;4.53;;
12852;SDS011;6495;51.808;7.478;2023-03-08T00:11:22;8.00;;;4.87;;
12852;SDS011;6495;51.808;7.478;2023-03-08T00:13:51;6.37;;;4.17;;
12852;SDS011;6495;51.808;7.478;2023-03-08T00:16:20;7.00;;;5.07;;
12852;SDS011;6495;51.808;7.478;2023-03-08T00:18:48;10.57;;;4.83;;
12852;SDS011;6495;51.808;7.478;2023-03-08T00:21:17;5.60;;;4.27;;
12852;SDS011;6495;51.808;7.478;2023-03-08T00:23:45;7.43;;;4.37;;
12852;SDS011;6495;51.808;7.478;2023-03-08T00:26:13;10.27;;;4.37;;
12852;SDS011;6495;51.808;7.478;2023-03-08T00:28:44;4.67;;;4.17;;
12852;SDS011;6495;51.808;7.478;2023-03-08T00:31:13;11.70;;;5.20;;
12852;SDS011;6495;51.808;7.478;2023-03-08T00:33:41;7.23;;;4.93;;
12852;SDS011;6495;51.808;7.478;2023-03-08T00:36:13;5.83;;;3.87;;
12852;SDS011;6495;51.808;7.478;2023-03-08T00:38:43;7.17;;;4.47;;
12852;SDS011;6495;51.808;7.478;2023-03-08T00:41:13;7.83;;;5.17;;
12852;SDS011;6495;51.808;7.478;2023-03-08T00:43:43;6.93;;;4.20;;
12852;SDS011;6495;51.808;7.478;2023-03-08T00:46:12;7.97;;;4.57;;
12852;SDS011;6495;51.808;7.478;2023-03-08T00:48:41;8.30;;;4.47;;
12852;SDS011;6495;51.808;7.478;2023-03-08T00:51:10;9.03;;;4.53;;
12852;SDS011;6495;51.808;7.478;2023-03-08T00:53:41;6.80;;;4.33;;
12852;SDS011;6495;51.808;7.478;2023-03-08T00:56:10;6.80;;;4.47;;
12852;SDS011;6495;51.808;7.478;2023-03-08T00:58:39;6.60;;;4.53;;
12852;SDS011;6495;51.808;7.478;2023-03-08T01:01:11;9.07;;;4.80;;
12852;SDS011;6495;51.808;7.478;2023-03-08T01:03:44;6.70;;;3.93;;
12852;SDS011;6495;51.808;7.478;2023-03-08T01:06:13;9.23;;;4.07;;
12852;SDS011;6495;51.808;7.478;2023-03-08T01:08:42;11.27;;;4.63;;
12852;SDS011;6495;51.808;7.478;2023-03-08T01:11:14;9.13;;;4.47;;
12852;SDS011;6495;51.808;7.478;2023-03-08T01:13:46;8.10;;;5.03;;
12852;SDS011;6495;51.808;7.478;2023-03-08T01:16:18;8.90;;;4.87;;
12852;SDS011;6495;51.808;7.478;2023-03-08T01:18:49;8.90;;;4.77;;
12852;SDS011;6495;51.808;7.478;2023-03-08T01:21:19;8.60;;;4.67;;
12852;SDS011;6495;51.808;7.478;2023-03-08T01:23:48;8.97;;;5.13;;
12852;SDS011;6495;51.808;7.478;2023-03-08T01:26:17;7.33;;;4.57;;
12852;SDS011;6495;51.808;7.478;2023-03-08T01:28:49;8.10;;;3.97;;
12852;SDS011;6495;51.808;7.478;2023-03-08T01:31:20;8.00;;;4.93;;
12852;SDS011;6495;51.808;7.478;2023-03-08T01:33:52;8.83;;;4.37;;
12852;SDS011;6495;51.808;7.478;2023-03-08T01:36:21;8.30;;;4.37;;
12852;SDS011;6495;51.808;7.478;2023-03-08T01:38:52;10.93;;;4.70;;
12852;SDS011;6495;51.808;7.478;2023-03-08T01:41:29;8.97;;;4.53;;
12852;SDS011;6495;51.808;7.478;2023-03-08T01:43:59;10.97;;;5.43;;
12852;SDS011;6495;51.808;7.478;2023-03-08T01:46:29;10.07;;;4.90;;
12852;SDS011;6495;51.808;7.478;2023-03-08T01:49:18;7.50;;;3.90;;
12852;SDS011;6495;51.808;7.478;2023-03-08T01:51:53;7.77;;;4.30;;
12852;SDS011;6495;51.808;7.478;2023-03-08T01:54:32;6.73;;;4.70;;
12852;SDS011;6495;51.808;7.478;2023-03-08T01:57:07;8.97;;;5.03;;
12852;SDS011;6495;51.808;7.478;2023-03-08T01:59:42;8.73;;;4.90;;
12852;SDS011;6495;51.808;7.478;2023-03-08T02:02:12;8.97;;;5.33;;
12852;SDS011;6495;51.808;7.478;2023-03-08T02:04:40;12.07;;;5.67;;
12852;SDS011;6495;51.808;7.478;2023-03-08T02:07:11;8.50;;;4.30;;
12852;SDS011;6495;51.808;7.478;2023-03-08T02:09:41;8.37;;;4.73;;
12852;SDS011;6495;51.808;7.478;2023-03-08T02:12:11;10.13;;;4.73;;
12852;SDS011;6495;51.808;7.478;2023-03-08T02:14:40;10.00;;;5.33;;
12852;SDS011;6495;51.808;7.478;2023-03-08T02:17:10;10.37;;;5.60;;
12852;SDS011;6495;51.808;7.478;2023-03-08T02:19:41;9.27;;;5.57;;
12852;SDS011;6495;51.808;7.478;2023-03-08T02:22:16;8.17;;;4.97;;
12852;SDS011;6495;51.808;7.478;2023-03-08T02:24:46;7.97;;;4.73;;
12852;SDS011;6495;51.808;7.478;2023-03-08T02:27:15;8.27;;;4.50;;
12852;SDS011;6495;51.808;7.478;2023-03-08T02:29:47;9.73;;;4.93;;
12852;SDS011;6495;51.808;7.478;2023-03-08T02:32:16;9.43;;;5.17;;
12852;SDS011;6495;51.808;7.478;2023-03-08T02:34:44;9.60;;;5.50;;
12852;SDS011;6495;51.808;7.478;2023-03-08T02:37:12;8.47;;;5.10;;
12852;SDS011;6495;51.808;7.478;2023-03-08T02:39:41;9.63;;;5.37;;
12852;SDS011;6495;51.808;7.478;2023-03-08T02:42:10;12.90;;;6.40;;
12852;SDS011;6495;51.808;7.478;2023-03-08T02:44:41;11.63;;;6.23;;
12852;SDS011;6495;51.808;7.478;2023-03-08T02:47:09;10.57;;;5.47;;
12852;SDS011;6495;51.808;7.478;2023-03-08T02:49:37;7.93;;;4.90;;
12852;SDS011;6495;51.808;7.478;2023-03-08T02:52:07;8.97;;;5.53;;
12852;SDS011;6495;51.808;7.478;2023-03-08T02:54:35;10.40;;;5.70;;
12852;SDS011;6495;51.808;7.478;2023-03-08T02:57:03;8.73;;;4.90;;
12852;SDS011;6495;51.808;7.478;2023-03-08T02:59:35;11.33;;;4.70;;
12852;SDS011;6495;51.808;7.478;2023-03-08T03:02:03;10.80;;;5.93;;
12852;SDS011;6495;51.808;7.478;2023-03-08T03:04:32;8.50;;;5.50;;
12852;SDS011;6495;51.808;7.478;2023-03-08T03:07:01;8.63;;;5.10;;
12852;SDS011;6495;51.808;7.478;2023-03-08T03:09:31;11.63;;;6.17;;
12852;SDS011;6495;51.808;7.478;2023-03-08T03:12:02;10.57;;;5.53;;
12852;SDS011;6495;51.808;7.478;2023-03-08T03:14:33;13.47;;;6.87;;
12852;SDS011;6495;51.808;7.478;2023-03-08T03:17:03;11.17;;;6.30;;
12852;SDS011;6495;51.808;7.478;2023-03-08T03:19:31;11.37;;;5.73;;
12852;SDS011;6495;51.808;7.478;2023-03-08T03:21:59;9.20;;;6.20;;
12852;SDS011;6495;51.808;7.478;2023-03-08T03:24:28;10.67;;;6.30;;
12852;SDS011;6495;51.808;7.478;2023-03-08T03:26:58;13.20;;;7.00;;
12852;SDS011;6495;51.808;7.478;2023-03-08T03:29:31;11.57;;;5.93;;
12852;SDS011;6495;51.808;7.478;2023-03-08T03:32:10;10.60;;;5.37;;
12852;SDS011;6495;51.808;7.478;2023-03-08T03:34:39;10.23;;;6.10;;
12852;SDS011;6495;51.808;7.478;2023-03-08T03:37:07;13.27;;;6.40;;
12852;SDS011;6495;51.808;7.478;2023-03-08T03:39:38;12.07;;;6.63;;
12852;SDS011;6495;51.808;7.478;2023-03-08T03:42:09;12.07;;;6.30;;
12852;SDS011;6495;51.808;7.478;2023-03-08T03:44:43;8.17;;;5.17;;
12852;SDS011;6495;51.808;7.478;2023-03-08T03:47:17;10.53;;;5.77;;
12852;SDS011;6495;51.808;7.478;2023-03-08T03:49:47;10.17;;;6.13;;
12852;SDS011;6495;51.808;7.478;2023-03-08T03:52:17;10.40;;;5.50;;
12852;SDS011;6495;51.808;7.478;2023-03-08T03:54:55;11.53;;;6.70;;
12852;SDS011;6495;51.808;7.478;2023-03-08T03:57:23;10.43;;;5.33;;
12852;SDS011;6495;51.808;7.478;2023-03-08T03:59:52;9.83;;;5.60;;
12852;SDS011;6495;51.808;7.478;2023-03-08T04:02:23;12.43;;;6.27;;
12852;SDS011;6495;51.808;7.478;2023-03-08T04:04:56;10.57;;;5.63;;
12852;SDS011;6495;51.808;7.478;2023-03-08T04:07:27;11.97;;;6.13;;
12852;SDS011;6495;51.808;7.478;2023-03-08T04:09:58;10.57;;;6.07;;
12852;SDS011;6495;51.808;7.478;2023-03-08T04:12:29;11.07;;;5.93;;
12852;SDS011;6495;51.808;7.478;2023-03-08T04:14:57;10.80;;;6.80;;
12852;SDS011;6495;51.808;7.478;2023-03-08T04:17:29;10.33;;;6.10;;
12852;SDS011;6495;51.808;7.478;2023-03-08T04:19:58;9.90;;;5.23;;
12852;SDS011;6495;51.808;7.478;2023-03-08T04:22:31;10.10;;;5.27;;
12852;SDS011;6495;51.808;7.478;2023-03-08T04:25:06;9.23;;;5.33;;
12852;SDS011;6495;51.808;7.478;2023-03-08T04:27:42;9.60;;;5.43;;
12852;SDS011;6495;51.808;7.478;2023-03-08T04:30:12;10.50;;;6.23;;
12852;SDS011;6495;51.808;7.478;2023-03-08T04:32:42;11.37;;;5.73;;
12852;SDS011;6495;51.808;7.478;2023-03-08T04:35:11;9.50;;;5.70;;
12852;SDS011;6495;51.808;7.478;2023-03-08T04:37:41;10.07;;;5.27;;
12852;SDS011;6495;51.808;7.478;2023-03-08T04:40:13;7.13;;;4.23;;
12852;SDS011;6495;51.808;7.478;2023-03-08T04:42:53;10.20;;;5.03;;
12852;SDS011;6495;51.808;7.478;2023-03-08T04:45:28;9.07;;;5.83;;
12852;SDS011;6495;51.808;7.478;2023-03-08T04:48:02;10.73;;;5.07;;
12852;SDS011;6495;51.808;7.478;2023-03-08T04:50:31;9.20;;;5.73;;
12852;SDS011;6495;51.808;7.478;2023-03-08T04:53:00;10.57;;;5.27;;
12852;SDS011;6495;51.808;7.478;2023-03-08T04:55:28;12.37;;;5.80;;
12852;SDS011;6495;51.808;7.478;2023-03-08T04:57:57;10.03;;;5.50;;
12852;SDS011;6495;51.808;7.478;2023-03-08T05:00:28;9.70;;;5.33;;
12852;SDS011;6495;51.808;7.478;2023-03-08T05:02:57;11.63;;;5.73;;
12852;SDS011;6495;51.808;7.478;2023-03-08T05:05:26;11.00;;;6.17;;
12852;SDS011;6495;51.808;7.478;2023-03-08T05:07:56;10.90;;;5.43;;
12852;SDS011;6495;51.808;7.478;2023-03-08T05:10:25;11.97;;;6.43;;
12852;SDS011;6495;51.808;7.478;2023-03-08T05:12:54;10.03;;;5.93;;
12852;SDS011;6495;51.808;7.478;2023-03-08T05:15:22;12.37;;;6.90;;
12852;SDS011;6495;51.808;7.478;2023-03-08T05:17:51;12.10;;;5.50;;
12852;SDS011;6495;51.808;7.478;2023-03-08T05:20:20;11.10;;;5.90;;
12852;SDS011;6495;51.808;7.478;2023-03-08T05:22:50;8.43;;;5.33;;
12852;SDS011;6495;51.808;7.478;2023-03-08T05:25:31;9.10;;;5.20;;
12852;SDS011;6495;51.808;7.478;2023-03-08T05:28:06;10.80;;;5.73;;
12852;SDS011;6495;51.808;7.478;2023-03-08T05:30:35;12.30;;;6.10;;
12852;SDS011;6495;51.808;7.478;2023-03-08T05:33:05;11.07;;;6.13;;
12852;SDS011;6495;51.808;7.478;2023-03-08T05:35:38;12.90;;;6.40;;
12852;SDS011;6495;51.808;7.478;2023-03-08T05:38:11;9.80;;;5.57;;
12852;SDS011;6495;51.808;7.478;2023-03-08T05:40:40;11.57;;;6.33;;
12852;SDS011;6495;51.808;7.478;2023-03-08T05:43:09;13.40;;;6.80;;
12852;SDS011;6495;51.808;7.478;2023-03-08T05:45:38;13.03;;;7.00;;
12852;SDS011;6495;51.808;7.478;2023-03-08T05:48:06;13.53;;;6.87;;
12852;SDS011;6495;51.808;7.478;2023-03-08T05:50:35;14.60;;;7.73;;
12852;SDS011;6495;51.808;7.478;2023-03-08T05:53:04;15.70;;;7.53;;
12852;SDS011;6495;51.808;7.478;2023-03-08T05:55:33;14.07;;;7.80;;
12852;SDS011;6495;51.808;7.478;2023-03-08T05:58:02;12.17;;;7.30;;
12852;SDS011;6495;51.808;7.478;2023-03-08T06:00:31;16.73;;;8.27;;
12852;SDS011;6495;51.808;7.478;2023-03-08T06:02:59;20.23;;;9.17;;
12852;SDS011;6495;51.808;7.478;2023-03-08T06:05:31;15.57;;;8.27;;
12852;SDS011;6495;51.808;7.478;2023-03-08T06:08:00;17.33;;;8.27;;
12852;SDS011;6495;51.808;7.478;2023-03-08T06:10:28;17.43;;;8.97;;
12852;SDS011;6495;51.808;7.478;2023-03-08T06:12:58;14.87;;;8.13;;
12852;SDS011;6495;51.808;7.478;2023-03-08T06:15:27;13.43;;;7.87;;
12852;SDS011;6495;51.808;7.478;2023-03-08T06:17:56;15.30;;;7.97;;
12852;SDS011;6495;51.808;7.478;2023-03-08T06:20:25;20.13;;;9.03;;
12852;SDS011;6495;51.808;7.478;2023-03-08T06:22:54;17.27;;;8.53;;
12852;SDS011;6495;51.808;7.478;2023-03-08T06:25:23;15.37;;;7.63;;
12852;SDS011;6495;51.808;7.478;2023-03-08T06:27:51;14.27;;;8.17;;
12852;SDS011;6495;51.808;7.478;2023-03-08T06:30:36;19.40;;;9.37;;
12852;SDS011;6495;51.808;7.478;2023-03-08T06:33:04;20.00;;;9.20;;
12852;SDS011;6495;51.808;7.478;2023-03-08T06:35:32;17.47;;;8.13;;
12852;SDS011;6495;51.808;7.478;2023-03-08T06:38:02;18.57;;;8.83;;
12852;SDS011;6495;51.808;7.478;2023-03-08T06:40:31;16.60;;;8.73;;
12852;SDS011;6495;51.808;7.478;2023-03-08T06:43:00;18.87;;;9.47;;
12852;SDS011;6495;51.808;7.478;2023-03-08T06:45:28;17.03;;;8.37;;
12852;SDS011;6495;51.808;7.478;2023-03-08T06:47:57;14.57;;;8.33;;
12852;SDS011;6495;51.808;7.478;2023-03-08T06:50:27;17.80;;;8.67;;
12852;SDS011;6495;51.808;7.478;2023-03-08T06:52:55;17.13;;;9.40;;
12852;SDS011;6495;51.808;7.478;2023-03-08T06:55:37;15.73;;;7.87;;
12852;SDS011;6495;51.808;7.478;2023-03-08T06:58:07;18.00;;;8.67;;
12852;SDS011;6495;51.808;7.478;2023-03-08T07:00:35;20.57;;;10.30;;
12852;SDS011;6495;51.808;7.478;2023-03-08T07:03:05;20.20;;;10.67;;
12852;SDS011;6495;51.808;7.478;2023-03-08T07:05:33;21.73;;;9.40;;
12852;SDS011;6495;51.808;7.478;2023-03-08T07:08:02;17.73;;;9.13;;
12852;SDS011;6495;51.808;7.478;2023-03-08T07:10:30;20.07;;;8.73;;
12852;SDS011;6495;51.808;7.478;2023-03-08T07:12:59;16.33;;;8.40;;
12852;SDS011;6495;51.808;7.478;2023-03-08T07:15:29;18.27;;;9.23;;
12852;SDS011;6495;51.808;7.478;2023-03-08T07:17:57;19.23;;;9.47;;
12852;SDS011;6495;51.808;7.478;2023-03-08T07:20:26;21.00;;;9.43;;
12852;SDS011;6495;51.808;7.478;2023-03-08T07:22:54;18.50;;;7.83;;
12852;SDS011;6495;51.808;7.478;2023-03-08T07:25:24;18.27;;;9.33;;
12852;SDS011;6495;51.808;7.478;2023-03-08T07:27:52;18.87;;;9.43;;
12852;SDS011;6495;51.808;7.478;2023-03-08T07:30:21;17.57;;;9.57;;
12852;SDS011;6495;51.808;7.478;2023-03-08T07:32:51;16.33;;;8.33;;
12852;SDS011;6495;51.808;7.478;2023-03-08T07:35:19;15.43;;;8.17;;
12852;SDS011;6495;51.808;7.478;2023-03-08T07:37:49;17.60;;;9.10;;
12852;SDS011;6495;51.808;7.478;2023-03-08T07:40:17;14.80;;;7.67;;
12852;SDS011;6495;51.808;7.478;2023-03-08T07:42:45;15.57;;;8.37;;
12852;SDS011;6495;51.808;7.478;2023-03-08T07:45:26;17.13;;;7.87;;
12852;SDS011;6495;51.808;7.478;2023-03-08T07:47:54;15.93;;;7.27;;
12852;SDS011;6495;51.808;7.478;2023-03-08T07:50:22;14.83;;;7.93;;
12852;SDS011;6495;51.808;7.478;2023-03-08T07:52:52;12.43;;;7.10;;
12852;SDS011;6495;51.808;7.478;2023-03-08T07:55:20;15.47;;;6.20;;
12852;SDS011;6495;51.808;7.478;2023-03-08T07:57:48;11.60;;;6.90;;
12852;SDS011;6495;51.808;7.478;2023-03-08T08:00:17;14.93;;;7.60;;
12852;SDS011;6495;51.808;7.478;2023-03-08T08:02:46;15.40;;;6.40;;
12852;SDS011;6495;51.808;7.478;2023-03-08T08:05:14;10.60;;;5.60;;
12852;SDS011;6495;51.808;7.478;2023-03-08T08:07:44;12.57;;;5.97;;
12852;SDS011;6495;51.808;7.478;2023-03-08T08:10:14;9.53;;;4.87;;
12852;SDS011;6495;51.808;7.478;2023-03-08T08:12:43;9.47;;;4.33;;
12852;SDS011;6495;51.808;7.478;2023-03-08T08:15:11;10.20;;;6.20;;
12852;SDS011;6495;51.808;7.478;2023-03-08T08:17:39;10.23;;;5.07;;
12852;SDS011;6495;51.808;7.478;2023-03-08T08:20:08;9.93;;;5.43;;
12852;SDS011;6495;51.808;7.478;2023-03-08T08:22:37;9.17;;;4.67;;
12852;SDS011;6495;51.808;7.478;2023-03-08T08:25:05;7.67;;;4.07;;
12852;SDS011;6495;51.808;7.478;2023-03-08T08:27:36;8.43;;;4.50;;
12852;SDS011;6495;51.808;7.478;2023-03-08T08:30:05;7.90;;;4.30;;
12852;SDS011;6495;51.808;7.478;2023-03-08T08:32:35;7.20;;;3.47;;
12852;SDS011;6495;51.808;7.478;2023-03-08T08:35:03;8.67;;;4.27;;
12852;SDS011;6495;51.808;7.478;2023-03-08T08:37:33;7.57;;;3.50;;
12852;SDS011;6495;51.808;7.478;2023-03-08T08:40:02;7.93;;;4.17;;
12852;SDS011;6495;51.808;7.478;2023-03-08T08:42:33;6.23;;;3.73;;
12852;SDS011;6495;51.808;7.478;2023-03-08T08:45:02;6.47;;;3.93;;
12852;SDS011;6495;51.808;7.478;2023-03-08T08:47:32;6.80;;;3.67;;
12852;SDS011;6495;51.808;7.478;2023-03-08T08:50:00;8.53;;;4.03;;
12852;SDS011;6495;51.808;7.478;2023-03-08T08:52:28;7.20;;;3.90;;
12852;SDS011;6495;51.808;7.478;2023-03-08T08:54:57;9.63;;;4.97;;
12852;SDS011;6495;51.808;7.478;2023-03-08T08:57:25;9.13;;;5.00;;
12852;SDS011;6495;51.808;7.478;2023-03-08T08:59:53;8.80;;;4.47;;
12852;SDS011;6495;51.808;7.478;2023-03-08T09:02:22;7.90;;;4.43;;
12852;SDS011;6495;51.808;7.478;2023-03-08T09:04:51;8.47;;;4.10;;
12852;SDS011;6495;51.808;7.478;2023-03-08T09:07:19;8.77;;;4.47;;
12852;SDS011;6495;51.808;7.478;2023-03-08T09:09:47;9.73;;;4.83;;
12852;SDS011;6495;51.808;7.478;2023-03-08T09:12:15;9.50;;;4.67;;
12852;SDS011;6495;51.808;7.478;2023-03-08T09:14:43;9.33;;;4.60;;
12852;SDS011;6495;51.808;7.478;2023-03-08T09:17:11;7.03;;;4.30;;
12852;SDS011;6495;51.808;7.478;2023-03-08T09:19:41;6.37;;;3.93;;
12852;SDS011;6495;51.808;7.478;2023-03-08T09:22:09;9.30;;;4.97;;
12852;SDS011;6495;51.808;7.478;2023-03-08T09:24:37;8.77;;;4.63;;
12852;SDS011;6495;51.808;7.478;2023-03-08T09:27:06;7.27;;;4.73;;
12852;SDS011;6495;51.808;7.478;2023-03-08T09:29:34;8.60;;;5.30;;
12852;SDS011;6495;51.808;7.478;2023-03-08T09:32:03;8.20;;;4.53;;
12852;SDS011;6495;51.808;7.478;2023-03-08T09:34:32;8.97;;;4.83;;
12852;SDS011;6495;51.808;7.478;2023-03-08T09:37:02;6.63;;;4.50;;
12852;SDS011;6495;51.808;7.478;2023-03-08T09:39:32;10.07;;;4.60;;
12852;SDS011;6495;51.808;7.478;2023-03-08T09:42:01;6.37;;;3.60;;
12852;SDS011;6495;51.808;7.478;2023-03-08T09:47:37;5.57;;;3.37;;
12852;SDS011;6495;51.808;7.478;2023-03-08T09:50:15;5.57;;;3.03;;
12852;SDS011;6495;51.808;7.478;2023-03-08T09:53:02;5.27;;;3.20;;
12852;SDS011;6495;51.808;7.478;2023-03-08T09:55:42;4.83;;;3.20;;
12852;SDS011;6495;51.808;7.478;2023-03-08T09:58:18;5.50;;;3.40;;
12852;SDS011;6495;51.808;7.478;2023-03-08T10:00:59;4.57;;;3.10;;
12852;SDS011;6495;51.808;7.478;2023-03-08T10:03:55;3.50;;;2.17;;
12852;SDS011;6495;51.808;7.478;2023-03-08T10:06:48;2.80;;;2.40;;
12852;SDS011;6495;51.808;7.478;2023-03-08T10:09:31;3.20;;;2.30;;
12852;SDS011;6495;51.808;7.478;2023-03-08T10:12:07;3.10;;;2.30;;
12852;SDS011;6495;51.808;7.478;2023-03-08T10:14:49;5.53;;;3.07;;
12852;SDS011;6495;51.808;7.478;2023-03-08T10:17:23;3.30;;;2.73;;
12852;SDS011;6495;51.808;7.478;2023-03-08T10:20:06;4.30;;;2.90;;
12852;SDS011;6495;51.808;7.478;2023-03-08T10:22:47;2.30;;;1.70;;
12852;SDS011;6495;51.808;7.478;2023-03-08T10:25:26;2.93;;;2.00;;
12852;SDS011;6495;51.808;7.478;2023-03-08T10:27:57;2.33;;;1.90;;
12852;SDS011;6495;51.808;7.478;2023-03-08T10:30:32;3.13;;;2.00;;
12852;SDS011;6495;51.808;7.478;2023-03-08T10:33:04;4.17;;;2.40;;
12852;SDS011;6495;51.808;7.478;2023-03-08T10:35:37;4.10;;;2.77;;
12852;SDS011;6495;51.808;7.478;2023-03-08T10:38:19;2.97;;;2.30;;
12852;SDS011;6495;51.808;7.478;2023-03-08T10:40:58;4.27;;;2.80;;
12852;SDS011;6495;51.808;7.478;2023-03-08T10:43:34;4.60;;;3.20;;
12852;SDS011;6495;51.808;7.478;2023-03-08T10:46:10;3.40;;;2.77;;
12852;SDS011;6495;51.808;7.478;2023-03-08T10:48:41;7.53;;;2.63;;
12852;SDS011;6495;51.808;7.478;2023-03-08T10:51:14;4.60;;;2.30;;
12852;SDS011;6495;51.808;7.478;2023-03-08T10:53:52;4.60;;;2.80;;
12852;SDS011;6495;51.808;7.478;2023-03-08T10:56:24;2.57;;;2.00;;
12852;SDS011;6495;51.808;7.478;2023-03-08T10:59:01;2.90;;;2.57;;
12852;SDS011;6495;51.808;7.478;2023-03-08T11:01:31;3.13;;;2.37;;
12852;SDS011;6495;51.808;7.478;2023-03-08T11:04:02;3.50;;;2.50;;
12852;SDS011;6495;51.808;7.478;2023-03-08T11:06:33;4.13;;;2.70;;
12852;SDS011;6495;51.808;7.478;2023-03-08T11:09:02;4.40;;;2.90;;
12852;SDS011;6495;51.808;7.478;2023-03-08T11:11:47;4.80;;;3.57;;
12852;SDS011;6495;51.808;7.478;2023-03-08T11:14:16;4.60;;;3.20;;
12852;SDS011;6495;51.808;7.478;2023-03-08T11:16:47;4.97;;;2.97;;
12852;SDS011;6495;51.808;7.478;2023-03-08T11:19:49;6.03;;;3.43;;
12852;SDS011;6495;51.808;7.478;2023-03-08T11:22:42;6.50;;;2.57;;
12852;SDS011;6495;51.808;7.478;2023-03-08T11:25:28;2.17;;;1.70;;
12852;SDS011;6495;51.808;7.478;2023-03-08T11:28:28;2.70;;;2.10;;
12852;SDS011;6495;51.808;7.478;2023-03-08T11:31:12;3.10;;;2.50;;
12852;SDS011;6495;51.808;7.478;2023-03-08T11:34:12;2.43;;;2.00;;
12852;SDS011;6495;51.808;7.478;2023-03-08T11:37:13;1.97;;;1.70;;
12852;SDS011;6495;51.808;7.478;2023-03-08T11:39:52;3.30;;;1.73;;
12852;SDS011;6495;51.808;7.478;2023-03-08T11:42:34;1.70;;;1.40;;
12852;SDS011;6495;51.808;7.478;2023-03-08T11:45:20;1.87;;;1.33;;
12852;SDS011;6495;51.808;7.478;2023-03-08T11:47:58;2.13;;;1.50;;
12852;SDS011;6495;51.808;7.478;2023-03-08T11:50:46;1.80;;;1.20;;
12852;SDS011;6495;51.808;7.478;2023-03-08T11:53:22;1.37;;;1.27;;
12852;SDS011;6495;51.808;7.478;2023-03-08T11:56:12;1.47;;;1.37;;
12852;SDS011;6495;51.808;7.478;2023-03-08T11:59:10;1.30;;;1.10;;
12852;SDS011;6495;51.808;7.478;2023-03-08T12:01:50;2.87;;;1.70;;
12852;SDS011;6495;51.808;7.478;2023-03-08T12:04:29;1.73;;;1.40;;
12852;SDS011;6495;51.808;7.478;2023-03-08T12:07:07;1.33;;;1.07;;
12852;SDS011;6495;51.808;7.478;2023-03-08T12:09:54;1.53;;;1.10;;
12852;SDS011;6495;51.808;7.478;2023-03-08T12:12:33;1.97;;;1.33;;
12852;SDS011;6495;51.808;7.478;2023-03-08T12:15:12;1.17;;;1.00;;
12852;SDS011;6495;51.808;7.478;2023-03-08T12:17:54;1.97;;;1.27;;
12852;SDS011;6495;51.808;7.478;2023-03-08T12:20:36;1.60;;;1.30;;
12852;SDS011;6495;51.808;7.478;2023-03-08T12:23:10;1.67;;;1.40;;
12852;SDS011;6495;51.808;7.478;2023-03-08T12:25:51;2.40;;;1.93;;
12852;SDS011;6495;51.808;7.478;2023-03-08T12:28:29;2.03;;;1.30;;
12852;SDS011;6495;51.808;7.478;2023-03-08T12:31:07;1.73;;;1.50;;
12852;SDS011;6495;51.808;7.478;2023-03-08T12:33:56;2.07;;;1.43;;
12852;SDS011;6495;51.808;7.478;2023-03-08T12:36:35;1.70;;;1.30;;
12852;SDS011;6495;51.808;7.478;2023-03-08T12:39:06;2.03;;;1.43;;
12852;SDS011;6495;51.808;7.478;2023-03-08T12:41:55;2.70;;;1.70;;
12852;SDS011;6495;51.808;7.478;2023-03-08T12:44:29;1.53;;;1.43;;
12852;SDS011;6495;51.808;7.478;2023-03-08T12:46:58;2.43;;;1.80;;
12852;SDS011;6495;51.808;7.478;2023-03-08T12:49:32;2.53;;;2.00;;
12852;SDS011;6495;51.808;7.478;2023-03-08T12:52:04;3.60;;;1.90;;
12852;SDS011;6495;51.808;7.478;2023-03-08T12:54:54;1.70;;;1.40;;
12852;SDS011;6495;51.808;7.478;2023-03-08T12:57:26;2.60;;;1.90;;
12852;SDS011;6495;51.808;7.478;2023-03-08T12:59:58;1.90;;;1.47;;
12852;SDS011;6495;51.808;7.478;2023-03-08T13:02:35;2.37;;;1.80;;
12852;SDS011;6495;51.808;7.478;2023-03-08T13:05:16;2.33;;;1.77;;
12852;SDS011;6495;51.808;7.478;2023-03-08T13:07:58;1.83;;;1.40;;
12852;SDS011;6495;51.808;7.478;2023-03-08T13:10:57;2.23;;;1.80;;
12852;SDS011;6495;51.808;7.478;2023-03-08T13:13:37;3.63;;;2.70;;
12852;SDS011;6495;51.808;7.478;2023-03-08T13:16:20;4.23;;;2.53;;
12852;SDS011;6495;51.808;7.478;2023-03-08T13:19:02;2.73;;;1.70;;
12852;SDS011;6495;51.808;7.478;2023-03-08T13:21:49;6.07;;;4.10;;
12852;SDS011;6495;51.808;7.478;2023-03-08T13:24:37;6.23;;;3.70;;
12852;SDS011;6495;51.808;7.478;2023-03-08T13:27:13;5.33;;;3.33;;
12852;SDS011;6495;51.808;7.478;2023-03-08T13:30:14;8.17;;;3.83;;
12852;SDS011;6495;51.808;7.478;2023-03-08T13:32:49;4.70;;;2.80;;
12852;SDS011;6495;51.808;7.478;2023-03-08T13:35:18;4.90;;;2.90;;
12852;SDS011;6495;51.808;7.478;2023-03-08T13:37:52;3.43;;;2.50;;
12852;SDS011;6495;51.808;7.478;2023-03-08T13:40:24;3.30;;;2.20;;
12852;SDS011;6495;51.808;7.478;2023-03-08T13:42:57;3.27;;;2.10;;
12852;SDS011;6495;51.808;7.478;2023-03-08T13:45:30;4.40;;;2.43;;
12852;SDS011;6495;51.808;7.478;2023-03-08T13:48:02;3.53;;;1.87;;
12852;SDS011;6495;51.808;7.478;2023-03-08T13:50:35;5.20;;;2.50;;
12852;SDS011;6495;51.808;7.478;2023-03-08T13:53:13;3.83;;;2.97;;
12852;SDS011;6495;51.808;7.478;2023-03-08T13:55:46;5.37;;;2.47;;
12852;SDS011;6495;51.808;7.478;2023-03-08T13:58:20;2.63;;;1.97;;
12852;SDS011;6495;51.808;7.478;2023-03-08T14:01:00;4.03;;;2.17;;
12852;SDS011;6495;51.808;7.478;2023-03-08T14:03:36;2.67;;;2.03;;
12852;SDS011;6495;51.808;7.478;2023-03-08T14:06:13;7.07;;;2.40;;
12852;SDS011;6495;51.808;7.478;2023-03-08T14:08:47;3.47;;;2.20;;
12852;SDS011;6495;51.808;7.478;2023-03-08T14:11:17;4.80;;;2.03;;
12852;SDS011;6495;51.808;7.478;2023-03-08T14:13:50;2.53;;;1.83;;
12852;SDS011;6495;51.808;7.478;2023-03-08T14:16:22;3.67;;;2.07;;
12852;SDS011;6495;51.808;7.478;2023-03-08T14:18:55;3.37;;;2.13;;
12852;SDS011;6495;51.808;7.478;2023-03-08T14:21:25;4.50;;;3.07;;
12852;SDS011;6495;51.808;7.478;2023-03-08T14:23:58;3.20;;;1.90;;
12852;SDS011;6495;51.808;7.478;2023-03-08T14:26:32;4.10;;;1.77;;
12852;SDS011;6495;51.808;7.478;2023-03-08T14:29:05;4.07;;;2.20;;
12852;SDS011;6495;51.808;7.478;2023-03-08T14:31:52;3.17;;;2.10;;
12852;SDS011;6495;51.808;7.478;2023-03-08T14:34:27;1.70;;;1.57;;
12852;SDS011;6495;51.808;7.478;2023-03-08T14:37:00;1.90;;;1.60;;
12852;SDS011;6495;51.808;7.478;2023-03-08T14:39:34;2.70;;;1.97;;
12852;SDS011;6495;51.808;7.478;2023-03-08T14:42:09;2.47;;;1.97;;
12852;SDS011;6495;51.808;7.478;2023-03-08T14:44:49;2.60;;;2.03;;
12852;SDS011;6495;51.808;7.478;2023-03-08T14:47:20;2.70;;;2.20;;
12852;SDS011;6495;51.808;7.478;2023-03-08T14:49:53;3.17;;;2.20;;
12852;SDS011;6495;51.808;7.478;2023-03-08T14:52:27;3.40;;;1.77;;
12852;SDS011;6495;51.808;7.478;2023-03-08T14:55:00;3.10;;;2.20;;
12852;SDS011;6495;51.808;7.478;2023-03-08T14:57:30;3.27;;;2.30;;
12852;SDS011;6495;51.808;7.478;2023-03-08T15:00:01;5.77;;;2.20;;
12852;SDS011;6495;51.808;7.478;2023-03-08T15:02:39;3.53;;;2.23;;
12852;SDS011;6495;51.808;7.478;2023-03-08T15:05:11;3.37;;;2.40;;
12852;SDS011;6495;51.808;7.478;2023-03-08T15:07:53;4.87;;;2.73;;
12852;SDS011;6495;51.808;7.478;2023-03-08T15:10:28;7.20;;;2.10;;
12852;SDS011;6495;51.808;7.478;2023-03-08T15:12:59;2.73;;;1.87;;
12852;SDS011;6495;51.808;7.478;2023-03-08T15:15:27;4.43;;;2.60;;
12852;SDS011;6495;51.808;7.478;2023-03-08T15:17:56;4.53;;;2.90;;
12852;SDS011;6495;51.808;7.478;2023-03-08T15:20:26;5.07;;;2.37;;
12852;SDS011;6495;51.808;7.478;2023-03-08T15:22:55;4.80;;;3.40;;
12852;SDS011;6495;51.808;7.478;2023-03-08T15:25:34;3.90;;;2.50;;
12852;SDS011;6495;51.808;7.478;2023-03-08T15:28:09;4.50;;;2.93;;
12852;SDS011;6495;51.808;7.478;2023-03-08T15:30:42;4.20;;;2.70;;
12852;SDS011;6495;51.808;7.478;2023-03-08T15:33:10;4.33;;;2.53;;